createdAt,value
2017-12-31T00:00:12.057Z,8.95
2017-12-31T00:00:52.620Z,8.95
2017-12-31T00:01:33.201Z,9.04
2017-12-31T00:02:13.769Z,8.88
2017-12-31T00:02:54.331Z,9.02
2017-12-31T00:03:34.889Z,8.91
2017-12-31T00:04:15.468Z,8.97
2017-12-31T00:04:56.026Z,8.92
2017-12-31T00:05:36.604Z,8.97
2017-12-31T00:06:17.163Z,8.89
2017-12-31T00:06:57.745Z,9
2017-12-31T00:07:38.319Z,8.94
2017-12-31T00:08:18.892Z,8.94
2017-12-31T00:08:59.493Z,8.91
2017-12-31T00:09:40.057Z,8.99
2017-12-31T00:10:20.614Z,8.89
2017-12-31T00:11:01.184Z,8.87
2017-12-31T00:11:41.788Z,8.91
2017-12-31T00:12:22.310Z,8.94
2017-12-31T00:13:02.886Z,8.92
2017-12-31T00:13:43.461Z,8.91
2017-12-31T00:14:24.033Z,8.91
2017-12-31T00:15:04.601Z,8.92
2017-12-31T00:15:45.161Z,8.95
2017-12-31T00:16:25.736Z,8.92
2017-12-31T00:17:06.335Z,8.94
2017-12-31T00:17:46.898Z,8.88
2017-12-31T00:18:27.469Z,8.91
2017-12-31T00:19:08.042Z,8.91
2017-12-31T00:19:48.597Z,8.94
2017-12-31T00:20:29.160Z,8.94
2017-12-31T00:21:09.743Z,8.97
2017-12-31T00:21:50.311Z,8.92
2017-12-31T00:22:30.875Z,8.84
2017-12-31T00:23:11.447Z,8.92
2017-12-31T00:23:51.994Z,8.94
2017-12-31T00:24:32.552Z,8.89
2017-12-31T00:25:13.110Z,8.88
2017-12-31T00:25:53.711Z,8.91
2017-12-31T00:26:34.269Z,8.92
2017-12-31T00:27:14.825Z,8.95
2017-12-31T00:27:55.395Z,8.91
2017-12-31T00:28:35.947Z,8.89
2017-12-31T00:29:16.511Z,8.95
2017-12-31T00:29:57.073Z,8.87
2017-12-31T00:30:37.634Z,8.91
2017-12-31T00:31:18.197Z,8.88
2017-12-31T00:31:58.755Z,8.91
2017-12-31T00:32:39.314Z,8.92
2017-12-31T00:33:19.871Z,8.94
2017-12-31T00:34:00.431Z,8.92
2017-12-31T00:34:40.990Z,8.92
2017-12-31T00:35:21.554Z,8.92
2017-12-31T00:36:02.110Z,8.97
2017-12-31T00:36:42.701Z,8.91
2017-12-31T00:37:23.278Z,8.88
2017-12-31T00:38:03.853Z,8.94
2017-12-31T00:38:44.418Z,8.95
2017-12-31T00:39:24.973Z,8.85
2017-12-31T00:40:05.560Z,8.92
2017-12-31T00:40:46.130Z,8.94
2017-12-31T00:41:26.692Z,8.99
2017-12-31T00:42:07.258Z,8.92
2017-12-31T00:42:47.833Z,8.89
2017-12-31T00:43:28.405Z,8.99
2017-12-31T00:44:08.974Z,8.95
2017-12-31T00:44:49.544Z,8.95
2017-12-31T00:45:30.119Z,8.94
2017-12-31T00:46:10.685Z,8.91
2017-12-31T00:46:51.249Z,8.95
2017-12-31T00:47:31.816Z,8.95
2017-12-31T00:48:12.386Z,8.91
2017-12-31T00:48:52.941Z,8.92
2017-12-31T00:49:33.541Z,8.94
2017-12-31T00:50:14.124Z,8.94
2017-12-31T00:50:54.682Z,8.89
2017-12-31T00:51:35.250Z,8.91
2017-12-31T00:52:15.833Z,8.99
2017-12-31T00:52:56.396Z,8.82
2017-12-31T00:53:36.973Z,8.92
2017-12-31T00:54:17.533Z,8.89
2017-12-31T00:54:58.105Z,8.91
2017-12-31T00:55:38.674Z,9
2017-12-31T00:56:19.232Z,8.89
2017-12-31T00:56:59.788Z,8.95
2017-12-31T00:57:40.346Z,8.92
2017-12-31T00:58:20.906Z,8.91
2017-12-31T00:59:01.469Z,8.92
2017-12-31T00:59:42.033Z,8.94
2017-12-31T01:00:22.607Z,8.95
2017-12-31T01:01:03.173Z,8.89
2017-12-31T01:01:43.729Z,8.95
2017-12-31T01:02:24.297Z,9
2017-12-31T01:03:04.872Z,8.97
2017-12-31T01:03:45.437Z,8.91
2017-12-31T01:04:26.008Z,8.91
2017-12-31T01:05:06.563Z,8.92
2017-12-31T01:05:47.130Z,8.91
2017-12-31T01:06:27.683Z,8.89
2017-12-31T01:07:08.253Z,8.89
2017-12-31T01:07:48.803Z,8.89
2017-12-31T01:08:29.363Z,8.92
2017-12-31T01:09:09.922Z,8.87
2017-12-31T01:09:50.541Z,8.88
2017-12-31T01:10:31.106Z,8.92
2017-12-31T01:11:11.664Z,8.92
2017-12-31T01:11:52.220Z,8.88
2017-12-31T01:12:32.783Z,8.95
2017-12-31T01:13:13.340Z,8.88
2017-12-31T01:13:53.897Z,8.92
2017-12-31T01:14:34.455Z,8.92
2017-12-31T01:15:15.035Z,8.91
2017-12-31T01:15:55.598Z,8.91
2017-12-31T01:16:36.154Z,8.89
2017-12-31T01:17:16.717Z,8.92
2017-12-31T01:17:57.286Z,8.88
2017-12-31T01:18:37.858Z,8.88
2017-12-31T01:19:18.423Z,8.88
2017-12-31T01:19:58.995Z,8.89
2017-12-31T01:20:39.550Z,8.91
2017-12-31T01:21:20.121Z,8.88
2017-12-31T01:22:00.702Z,8.82
2017-12-31T01:22:41.253Z,8.87
2017-12-31T01:23:21.816Z,8.87
2017-12-31T01:24:02.405Z,8.89
2017-12-31T01:24:42.977Z,8.87
2017-12-31T01:25:23.538Z,8.78
2017-12-31T01:26:04.118Z,8.79
2017-12-31T01:26:44.695Z,8.78
2017-12-31T01:27:25.267Z,8.76
2017-12-31T01:28:05.881Z,8.84
2017-12-31T01:28:46.462Z,8.84
2017-12-31T01:29:27.023Z,8.85
2017-12-31T01:30:07.607Z,8.87
2017-12-31T01:30:48.184Z,8.74
2017-12-31T01:31:28.756Z,8.81
2017-12-31T01:32:09.329Z,8.82
2017-12-31T01:32:49.907Z,8.76
2017-12-31T01:33:30.472Z,8.81
2017-12-31T01:34:11.046Z,8.78
2017-12-31T01:34:51.627Z,8.84
2017-12-31T01:35:32.199Z,8.78
2017-12-31T01:36:12.763Z,8.84
2017-12-31T01:36:53.330Z,8.79
2017-12-31T01:37:33.912Z,8.78
2017-12-31T01:38:14.479Z,8.79
2017-12-31T01:38:55.050Z,8.73
2017-12-31T01:39:35.615Z,8.78
2017-12-31T01:40:16.186Z,8.73
2017-12-31T01:40:56.743Z,8.73
2017-12-31T01:41:37.313Z,8.81
2017-12-31T01:42:17.881Z,8.74
2017-12-31T01:42:58.464Z,8.78
2017-12-31T01:43:39.026Z,8.74
2017-12-31T01:44:19.595Z,8.73
2017-12-31T01:45:00.154Z,8.76
2017-12-31T01:45:40.711Z,8.71
2017-12-31T01:46:21.270Z,8.73
2017-12-31T01:47:01.849Z,8.7
2017-12-31T01:47:45.308Z,8.69
2017-12-31T01:48:25.874Z,8.78
2017-12-31T01:49:06.441Z,8.66
2017-12-31T01:49:47.015Z,8.67
2017-12-31T01:50:27.573Z,8.63
2017-12-31T01:51:08.137Z,8.66
2017-12-31T01:51:48.697Z,8.7
2017-12-31T01:52:29.277Z,8.67
2017-12-31T01:53:09.827Z,8.67
2017-12-31T01:53:50.390Z,8.64
2017-12-31T01:54:30.952Z,8.71
2017-12-31T01:55:11.508Z,8.66
2017-12-31T01:55:52.069Z,8.7
2017-12-31T01:56:32.660Z,8.67
2017-12-31T01:57:13.243Z,8.71
2017-12-31T01:57:53.855Z,8.63
2017-12-31T01:58:34.444Z,8.64
2017-12-31T01:59:15.058Z,8.69
2017-12-31T01:59:55.621Z,8.6
2017-12-31T02:00:36.179Z,8.66
2017-12-31T02:01:16.744Z,8.67
2017-12-31T02:01:57.305Z,8.6
2017-12-31T02:02:37.887Z,8.64
2017-12-31T02:03:18.447Z,8.58
2017-12-31T02:03:59.019Z,8.63
2017-12-31T02:04:39.581Z,8.63
2017-12-31T02:05:20.145Z,8.6
2017-12-31T02:06:00.718Z,8.56
2017-12-31T02:06:41.295Z,8.46
2017-12-31T02:07:21.873Z,8.53
2017-12-31T02:08:02.441Z,8.56
2017-12-31T02:08:43.013Z,8.52
2017-12-31T02:09:23.578Z,8.52
2017-12-31T02:10:04.143Z,8.48
2017-12-31T02:10:44.720Z,8.51
2017-12-31T02:11:25.271Z,8.51
2017-12-31T02:12:05.830Z,8.46
2017-12-31T02:12:46.441Z,8.44
2017-12-31T02:13:27.093Z,8.55
2017-12-31T02:14:07.664Z,8.55
2017-12-31T02:14:48.222Z,8.52
2017-12-31T02:15:28.813Z,8.55
2017-12-31T02:16:09.385Z,8.51
2017-12-31T02:16:49.960Z,8.55
2017-12-31T02:17:30.525Z,8.52
2017-12-31T02:18:11.097Z,8.46
2017-12-31T02:18:51.660Z,8.52
2017-12-31T02:19:32.215Z,8.45
2017-12-31T02:20:12.772Z,8.38
2017-12-31T02:20:53.337Z,8.49
2017-12-31T02:21:33.902Z,8.51
2017-12-31T02:22:14.459Z,8.48
2017-12-31T02:22:55.013Z,8.49
2017-12-31T02:23:35.581Z,8.48
2017-12-31T02:24:16.141Z,8.48
2017-12-31T02:24:56.706Z,8.42
2017-12-31T02:25:37.292Z,8.44
2017-12-31T02:26:17.860Z,8.45
2017-12-31T02:26:58.433Z,8.46
2017-12-31T02:27:39.005Z,8.44
2017-12-31T02:28:19.573Z,8.52
2017-12-31T02:29:00.132Z,8.48
2017-12-31T02:29:40.703Z,8.51
2017-12-31T02:30:21.268Z,8.46
2017-12-31T02:31:01.834Z,8.48
2017-12-31T02:31:42.387Z,8.48
2017-12-31T02:32:22.966Z,8.44
2017-12-31T02:33:03.549Z,8.44
2017-12-31T02:33:44.110Z,8.48
2017-12-31T02:34:24.685Z,8.42
2017-12-31T02:35:05.258Z,8.41
2017-12-31T02:35:45.821Z,8.51
2017-12-31T02:36:26.386Z,8.41
2017-12-31T02:37:06.967Z,8.42
2017-12-31T02:37:47.542Z,8.44
2017-12-31T02:38:28.106Z,8.42
2017-12-31T02:39:08.675Z,8.41
2017-12-31T02:39:49.258Z,8.36
2017-12-31T02:40:29.834Z,8.37
2017-12-31T02:41:10.401Z,8.37
2017-12-31T02:41:50.978Z,8.37
2017-12-31T02:42:31.524Z,8.41
2017-12-31T02:43:12.091Z,8.44
2017-12-31T02:43:52.687Z,8.37
2017-12-31T02:44:33.255Z,8.42
2017-12-31T02:45:13.808Z,8.46
2017-12-31T02:45:54.393Z,8.38
2017-12-31T02:46:34.947Z,8.44
2017-12-31T02:47:15.521Z,8.38
2017-12-31T02:47:56.084Z,8.34
2017-12-31T02:48:36.646Z,8.38
2017-12-31T02:49:17.222Z,8.44
2017-12-31T02:49:57.788Z,8.36
2017-12-31T02:50:38.354Z,8.42
2017-12-31T02:51:18.937Z,8.41
2017-12-31T02:51:59.498Z,8.41
2017-12-31T02:52:40.069Z,8.34
2017-12-31T02:53:20.623Z,8.36
2017-12-31T02:54:01.213Z,8.33
2017-12-31T02:54:41.791Z,8.28
2017-12-31T02:55:22.365Z,8.28
2017-12-31T02:56:03.008Z,8.36
2017-12-31T02:56:43.506Z,8.26
2017-12-31T02:57:24.086Z,8.33
2017-12-31T02:58:04.645Z,8.27
2017-12-31T02:58:45.219Z,8.3
2017-12-31T02:59:25.796Z,8.28
2017-12-31T03:00:06.340Z,8.24
2017-12-31T03:00:46.929Z,8.24
2017-12-31T03:01:27.483Z,8.24
2017-12-31T03:02:08.070Z,8.2
2017-12-31T03:02:48.633Z,8.2
2017-12-31T03:03:29.214Z,8.2
2017-12-31T03:04:09.767Z,8.18
2017-12-31T03:04:50.329Z,8.27
2017-12-31T03:05:30.883Z,8.27
2017-12-31T03:06:11.433Z,8.27
2017-12-31T03:06:51.988Z,8.24
2017-12-31T03:07:32.547Z,8.27
2017-12-31T03:08:13.123Z,8.24
2017-12-31T03:08:53.697Z,8.23
2017-12-31T03:09:34.275Z,8.2
2017-12-31T03:10:14.846Z,8.24
2017-12-31T03:10:55.403Z,8.15
2017-12-31T03:11:35.996Z,8.12
2017-12-31T03:12:16.557Z,8.19
2017-12-31T03:12:57.128Z,8.15
2017-12-31T03:13:37.691Z,8.1
2017-12-31T03:14:18.259Z,8.08
2017-12-31T03:14:58.821Z,8.1
2017-12-31T03:15:39.435Z,8.15
2017-12-31T03:16:19.994Z,8.03
2017-12-31T03:17:00.555Z,8.08
2017-12-31T03:17:41.114Z,8.13
2017-12-31T03:18:21.714Z,8.08
2017-12-31T03:19:02.249Z,8.01
2017-12-31T03:19:42.825Z,8.05
2017-12-31T03:20:23.376Z,8.05
2017-12-31T03:21:03.952Z,8.01
2017-12-31T03:21:44.541Z,8.05
2017-12-31T03:22:25.128Z,8.06
2017-12-31T03:23:05.726Z,8.03
2017-12-31T03:23:46.298Z,8.03
2017-12-31T03:24:26.867Z,8.03
2017-12-31T03:25:07.430Z,8.03
2017-12-31T03:25:47.997Z,7.98
2017-12-31T03:26:28.565Z,8.03
2017-12-31T03:27:09.126Z,8.06
2017-12-31T03:27:49.703Z,8.03
2017-12-31T03:28:30.268Z,8.09
2017-12-31T03:29:10.829Z,8.1
2017-12-31T03:29:51.395Z,8.05
2017-12-31T03:30:31.956Z,8.05
2017-12-31T03:31:12.522Z,8.05
2017-12-31T03:31:53.082Z,8.03
2017-12-31T03:32:33.638Z,8.09
2017-12-31T03:33:14.210Z,8.01
2017-12-31T03:33:54.770Z,8.05
2017-12-31T03:34:35.339Z,8
2017-12-31T03:35:15.926Z,8.05
2017-12-31T03:35:56.481Z,7.95
2017-12-31T03:36:37.048Z,7.9
2017-12-31T03:37:17.613Z,8
2017-12-31T03:37:58.184Z,8
2017-12-31T03:38:38.742Z,8
2017-12-31T03:39:19.317Z,7.95
2017-12-31T03:39:59.892Z,7.93
2017-12-31T03:40:40.452Z,7.97
2017-12-31T03:41:21.004Z,7.91
2017-12-31T03:42:01.576Z,7.94
2017-12-31T03:42:42.134Z,7.93
2017-12-31T03:43:22.695Z,7.93
2017-12-31T03:44:03.259Z,7.94
2017-12-31T03:44:43.837Z,7.97
2017-12-31T03:45:24.407Z,8
2017-12-31T03:46:04.973Z,7.97
2017-12-31T03:46:45.535Z,8
2017-12-31T03:47:26.098Z,7.91
2017-12-31T03:48:06.675Z,8.08
2017-12-31T03:48:47.250Z,8.05
2017-12-31T03:49:27.823Z,8.03
2017-12-31T03:50:08.375Z,8.01
2017-12-31T03:50:48.927Z,8.06
2017-12-31T03:51:29.493Z,8
2017-12-31T03:52:10.074Z,7.94
2017-12-31T03:52:50.645Z,8
2017-12-31T03:53:31.209Z,7.91
2017-12-31T03:54:11.768Z,8.05
2017-12-31T03:54:52.330Z,8.05
2017-12-31T03:55:32.892Z,8.03
2017-12-31T03:56:13.454Z,8.08
2017-12-31T03:56:54.026Z,8.05
2017-12-31T03:57:34.582Z,8.12
2017-12-31T03:58:15.228Z,8.09
2017-12-31T03:58:55.809Z,8.01
2017-12-31T03:59:36.364Z,7.94
2017-12-31T04:00:16.920Z,8.01
2017-12-31T04:00:57.493Z,8.08
2017-12-31T04:01:38.065Z,8.01
2017-12-31T04:02:18.633Z,8
2017-12-31T04:02:59.207Z,8.03
2017-12-31T04:03:39.766Z,8.01
2017-12-31T04:04:20.340Z,8.06
2017-12-31T04:05:00.905Z,8.08
2017-12-31T04:05:41.483Z,8.06
2017-12-31T04:06:22.032Z,8.01
2017-12-31T04:07:02.599Z,8.06
2017-12-31T04:07:43.158Z,8.08
2017-12-31T04:08:23.720Z,8
2017-12-31T04:09:04.290Z,8
2017-12-31T04:09:44.854Z,8
2017-12-31T04:10:25.432Z,7.93
2017-12-31T04:11:05.988Z,7.93
2017-12-31T04:11:46.559Z,7.91
2017-12-31T04:12:27.121Z,7.87
2017-12-31T04:13:07.695Z,7.9
2017-12-31T04:13:48.262Z,7.87
2017-12-31T04:14:28.840Z,8
2017-12-31T04:15:09.417Z,7.95
2017-12-31T04:15:49.981Z,7.88
2017-12-31T04:16:30.572Z,7.85
2017-12-31T04:17:11.142Z,7.85
2017-12-31T04:17:51.715Z,7.88
2017-12-31T04:18:32.283Z,7.88
2017-12-31T04:19:12.839Z,7.87
2017-12-31T04:19:53.399Z,7.85
2017-12-31T04:20:33.957Z,7.82
2017-12-31T04:21:14.520Z,7.87
2017-12-31T04:21:55.074Z,7.87
2017-12-31T04:22:35.653Z,7.9
2017-12-31T04:23:16.248Z,7.9
2017-12-31T04:23:56.810Z,7.83
2017-12-31T04:24:37.374Z,7.9
2017-12-31T04:25:17.932Z,7.87
2017-12-31T04:25:58.532Z,7.87
2017-12-31T04:26:39.102Z,7.85
2017-12-31T04:27:19.670Z,7.9
2017-12-31T04:28:00.228Z,7.9
2017-12-31T04:28:40.848Z,7.9
2017-12-31T04:29:21.361Z,7.85
2017-12-31T04:30:01.926Z,7.91
2017-12-31T04:30:42.481Z,7.9
2017-12-31T04:31:23.051Z,7.91
2017-12-31T04:32:03.627Z,7.93
2017-12-31T04:32:44.185Z,7.8
2017-12-31T04:33:24.747Z,7.82
2017-12-31T04:34:05.305Z,7.85
2017-12-31T04:34:45.862Z,7.85
2017-12-31T04:35:26.421Z,7.9
2017-12-31T04:36:06.992Z,7.79
2017-12-31T04:36:47.560Z,7.82
2017-12-31T04:37:28.135Z,7.9
2017-12-31T04:38:08.706Z,7.9
2017-12-31T04:38:49.269Z,7.9
2017-12-31T04:39:29.838Z,7.9
2017-12-31T04:40:10.403Z,7.88
2017-12-31T04:40:50.961Z,7.87
2017-12-31T04:41:31.532Z,7.85
2017-12-31T04:42:12.125Z,7.85
2017-12-31T04:42:52.691Z,7.82
2017-12-31T04:43:33.276Z,7.85
2017-12-31T04:44:13.840Z,7.8
2017-12-31T04:44:54.396Z,7.76
2017-12-31T04:45:34.952Z,7.87
2017-12-31T04:46:15.520Z,7.77
2017-12-31T04:46:56.098Z,7.87
2017-12-31T04:47:36.664Z,7.79
2017-12-31T04:48:17.235Z,7.85
2017-12-31T04:48:57.801Z,7.83
2017-12-31T04:49:38.355Z,7.8
2017-12-31T04:50:18.937Z,7.82
2017-12-31T04:50:59.505Z,7.79
2017-12-31T04:51:40.074Z,7.83
2017-12-31T04:52:20.624Z,7.83
2017-12-31T04:53:01.197Z,7.77
2017-12-31T04:53:41.764Z,7.83
2017-12-31T04:54:22.340Z,7.91
2017-12-31T04:55:02.895Z,7.82
2017-12-31T04:55:43.465Z,7.82
2017-12-31T04:56:24.050Z,7.79
2017-12-31T04:57:04.603Z,7.83
2017-12-31T04:57:45.169Z,7.85
2017-12-31T04:58:25.734Z,7.83
2017-12-31T04:59:06.303Z,7.76
2017-12-31T04:59:46.879Z,7.88
2017-12-31T05:00:27.451Z,7.82
2017-12-31T05:01:08.017Z,7.87
2017-12-31T05:01:48.587Z,7.85
2017-12-31T05:02:29.158Z,7.79
2017-12-31T05:03:09.737Z,7.8
2017-12-31T05:03:50.307Z,7.79
2017-12-31T05:04:30.899Z,7.85
2017-12-31T05:05:11.447Z,7.85
2017-12-31T05:05:52.016Z,7.76
2017-12-31T05:06:32.579Z,7.79
2017-12-31T05:07:13.152Z,7.79
2017-12-31T05:07:53.731Z,7.79
2017-12-31T05:08:34.290Z,7.87
2017-12-31T05:09:14.864Z,7.83
2017-12-31T05:09:55.430Z,7.79
2017-12-31T05:10:35.989Z,7.8
2017-12-31T05:11:16.555Z,7.75
2017-12-31T05:11:57.123Z,7.8
2017-12-31T05:12:37.682Z,7.8
2017-12-31T05:13:18.247Z,7.76
2017-12-31T05:13:58.802Z,7.73
2017-12-31T05:14:39.361Z,7.79
2017-12-31T05:15:19.923Z,7.8
2017-12-31T05:16:00.501Z,7.82
2017-12-31T05:16:41.063Z,7.87
2017-12-31T05:17:21.634Z,7.82
2017-12-31T05:18:02.191Z,7.82
2017-12-31T05:18:42.765Z,7.75
2017-12-31T05:19:23.317Z,7.73
2017-12-31T05:20:03.870Z,7.8
2017-12-31T05:20:44.439Z,7.69
2017-12-31T05:21:25.007Z,7.7
2017-12-31T05:22:05.569Z,7.69
2017-12-31T05:22:46.133Z,7.83
2017-12-31T05:23:26.685Z,7.7
2017-12-31T05:24:07.276Z,7.8
2017-12-31T05:24:47.848Z,7.87
2017-12-31T05:25:28.408Z,7.79
2017-12-31T05:26:08.994Z,7.8
2017-12-31T05:26:49.561Z,7.79
2017-12-31T05:27:30.132Z,7.82
2017-12-31T05:28:10.700Z,7.8
2017-12-31T05:28:51.267Z,7.85
2017-12-31T05:29:31.817Z,7.75
2017-12-31T05:30:12.389Z,7.73
2017-12-31T05:30:52.954Z,7.75
2017-12-31T05:31:33.518Z,7.73
2017-12-31T05:32:14.084Z,7.73
2017-12-31T05:32:54.644Z,7.75
2017-12-31T05:33:35.204Z,7.73
2017-12-31T05:34:15.769Z,7.87
2017-12-31T05:34:56.344Z,7.87
2017-12-31T05:35:36.909Z,7.72
2017-12-31T05:36:17.477Z,7.82
2017-12-31T05:36:58.042Z,7.82
2017-12-31T05:37:38.603Z,7.75
2017-12-31T05:38:19.185Z,7.73
2017-12-31T05:38:59.745Z,7.7
2017-12-31T05:39:40.326Z,7.76
2017-12-31T05:40:20.913Z,7.77
2017-12-31T05:41:01.473Z,7.79
2017-12-31T05:41:42.047Z,7.72
2017-12-31T05:42:22.620Z,7.82
2017-12-31T05:43:03.227Z,7.83
2017-12-31T05:43:43.799Z,7.76
2017-12-31T05:44:24.367Z,7.82
2017-12-31T05:45:04.946Z,7.83
2017-12-31T05:45:45.509Z,7.83
2017-12-31T05:46:26.112Z,7.85
2017-12-31T05:47:06.673Z,7.79
2017-12-31T05:47:47.269Z,7.76
2017-12-31T05:48:27.829Z,7.8
2017-12-31T05:49:08.396Z,7.85
2017-12-31T05:49:48.957Z,7.75
2017-12-31T05:50:29.510Z,7.73
2017-12-31T05:51:10.068Z,7.75
2017-12-31T05:51:50.632Z,7.75
2017-12-31T05:52:31.204Z,7.73
2017-12-31T05:53:11.752Z,7.73
2017-12-31T05:53:52.326Z,7.76
2017-12-31T05:54:32.889Z,7.69
2017-12-31T05:55:13.451Z,7.72
2017-12-31T05:55:54.032Z,7.72
2017-12-31T05:56:34.619Z,7.73
2017-12-31T05:57:15.199Z,7.66
2017-12-31T05:57:55.761Z,7.66
2017-12-31T05:58:36.331Z,7.7
2017-12-31T05:59:16.891Z,7.73
2017-12-31T05:59:57.458Z,7.75
2017-12-31T06:00:38.030Z,7.69
2017-12-31T06:01:18.602Z,7.73
2017-12-31T06:01:59.165Z,7.77
2017-12-31T06:02:39.724Z,7.7
2017-12-31T06:03:20.296Z,7.73
2017-12-31T06:04:00.874Z,7.7
2017-12-31T06:04:41.439Z,7.73
2017-12-31T06:05:22.011Z,7.72
2017-12-31T06:06:02.590Z,7.7
2017-12-31T06:06:43.145Z,7.73
2017-12-31T06:07:23.729Z,7.76
2017-12-31T06:08:04.294Z,7.72
2017-12-31T06:08:44.850Z,7.73
2017-12-31T06:09:25.413Z,7.76
2017-12-31T06:10:05.972Z,7.76
2017-12-31T06:10:46.545Z,7.73
2017-12-31T06:11:27.199Z,7.7
2017-12-31T06:12:07.759Z,7.79
2017-12-31T06:12:48.326Z,7.77
2017-12-31T06:13:28.896Z,7.7
2017-12-31T06:14:09.457Z,7.73
2017-12-31T06:14:50.019Z,7.77
2017-12-31T06:15:30.594Z,7.77
2017-12-31T06:16:11.156Z,7.75
2017-12-31T06:16:51.710Z,7.8
2017-12-31T06:17:32.286Z,7.79
2017-12-31T06:18:12.859Z,7.79
2017-12-31T06:18:53.425Z,7.83
2017-12-31T06:19:33.999Z,7.8
2017-12-31T06:20:14.577Z,7.75
2017-12-31T06:20:55.143Z,7.82
2017-12-31T06:21:35.713Z,7.82
2017-12-31T06:22:16.295Z,7.72
2017-12-31T06:22:56.867Z,7.79
2017-12-31T06:23:37.433Z,7.73
2017-12-31T06:24:17.999Z,7.73
2017-12-31T06:24:58.555Z,7.79
2017-12-31T06:25:39.118Z,7.72
2017-12-31T06:26:19.718Z,7.85
2017-12-31T06:27:00.284Z,7.87
2017-12-31T06:27:40.853Z,7.82
2017-12-31T06:28:21.411Z,7.83
2017-12-31T06:29:01.983Z,7.79
2017-12-31T06:30:49.794Z,7.8
2017-12-31T06:31:30.360Z,7.77
2017-12-31T06:32:10.938Z,7.9
2017-12-31T06:32:51.509Z,7.9
2017-12-31T06:33:32.108Z,7.9
2017-12-31T06:34:12.674Z,7.88
2017-12-31T06:34:53.244Z,7.9
2017-12-31T06:35:33.822Z,7.85
2017-12-31T06:36:14.384Z,7.83
2017-12-31T06:36:54.944Z,7.83
2017-12-31T06:37:35.502Z,7.82
2017-12-31T06:38:16.079Z,7.94
2017-12-31T06:38:56.633Z,7.87
2017-12-31T06:39:37.184Z,7.9
2017-12-31T06:40:17.766Z,7.83
2017-12-31T06:40:58.336Z,7.79
2017-12-31T06:41:38.898Z,7.9
2017-12-31T06:42:19.481Z,7.87
2017-12-31T06:43:00.037Z,7.87
2017-12-31T06:43:40.591Z,7.9
2017-12-31T06:44:21.150Z,7.88
2017-12-31T06:45:01.708Z,7.83
2017-12-31T06:45:42.275Z,7.83
2017-12-31T06:46:22.836Z,7.82
2017-12-31T06:47:03.391Z,7.9
2017-12-31T06:47:43.992Z,7.94
2017-12-31T06:48:24.560Z,7.79
2017-12-31T06:49:05.140Z,7.97
2017-12-31T06:49:45.702Z,7.97
2017-12-31T06:50:26.253Z,7.93
2017-12-31T06:51:06.816Z,7.93
2017-12-31T06:51:47.387Z,7.97
2017-12-31T06:52:27.945Z,7.93
2017-12-31T06:53:08.517Z,7.83
2017-12-31T06:53:49.070Z,7.85
2017-12-31T06:54:29.668Z,7.83
2017-12-31T06:55:10.229Z,7.91
2017-12-31T06:55:50.791Z,7.87
2017-12-31T06:56:31.345Z,7.9
2017-12-31T06:57:11.906Z,7.87
2017-12-31T06:57:52.471Z,7.87
2017-12-31T06:58:33.050Z,7.82
2017-12-31T06:59:13.614Z,7.9
2017-12-31T06:59:54.178Z,7.88
2017-12-31T07:00:34.759Z,7.94
2017-12-31T07:01:15.325Z,7.9
2017-12-31T07:01:55.895Z,7.88
2017-12-31T07:02:36.463Z,7.87
2017-12-31T07:03:17.047Z,7.91
2017-12-31T07:03:57.619Z,7.9
2017-12-31T07:04:38.179Z,7.79
2017-12-31T07:05:18.756Z,7.8
2017-12-31T07:05:59.320Z,7.94
2017-12-31T07:06:39.885Z,7.87
2017-12-31T07:07:20.442Z,7.9
2017-12-31T07:08:01.030Z,7.93
2017-12-31T07:08:41.628Z,7.87
2017-12-31T07:09:22.209Z,7.88
2017-12-31T07:10:02.769Z,7.93
2017-12-31T07:10:43.346Z,7.82
2017-12-31T07:11:23.911Z,7.8
2017-12-31T07:12:04.467Z,7.83
2017-12-31T07:12:45.029Z,7.8
2017-12-31T07:13:25.596Z,7.83
2017-12-31T07:14:06.171Z,7.83
2017-12-31T07:14:46.730Z,7.88
2017-12-31T07:15:27.289Z,7.9
2017-12-31T07:16:07.852Z,7.94
2017-12-31T07:16:48.419Z,7.9
2017-12-31T07:17:29.000Z,7.85
2017-12-31T07:18:09.570Z,7.82
2017-12-31T07:18:50.130Z,7.9
2017-12-31T07:19:30.719Z,7.85
2017-12-31T07:20:11.289Z,7.9
2017-12-31T07:20:51.860Z,7.9
2017-12-31T07:21:32.449Z,7.83
2017-12-31T07:22:13.017Z,7.94
2017-12-31T07:22:53.575Z,7.88
2017-12-31T07:23:34.141Z,7.83
2017-12-31T07:24:14.721Z,7.9
2017-12-31T07:24:55.297Z,7.85
2017-12-31T07:25:35.859Z,7.83
2017-12-31T07:26:16.422Z,7.9
2017-12-31T07:26:56.988Z,7.87
2017-12-31T07:27:37.557Z,7.88
2017-12-31T07:28:18.128Z,7.82
2017-12-31T07:28:58.694Z,7.87
2017-12-31T07:29:39.268Z,7.87
2017-12-31T07:30:19.831Z,7.85
2017-12-31T07:31:00.392Z,7.87
2017-12-31T07:32:37.729Z,7.9
2017-12-31T07:33:18.292Z,7.83
2017-12-31T07:33:58.857Z,7.94
2017-12-31T07:34:39.435Z,7.91
2017-12-31T07:35:19.995Z,7.88
2017-12-31T07:36:00.557Z,7.94
2017-12-31T07:36:41.107Z,7.9
2017-12-31T07:37:21.671Z,7.98
2017-12-31T07:38:02.233Z,7.85
2017-12-31T07:38:42.792Z,7.85
2017-12-31T07:39:23.344Z,7.83
2017-12-31T07:40:03.923Z,7.94
2017-12-31T07:40:44.476Z,7.97
2017-12-31T07:41:25.038Z,7.97
2017-12-31T07:42:05.592Z,7.94
2017-12-31T07:42:46.193Z,7.95
2017-12-31T07:43:26.749Z,7.98
2017-12-31T07:44:07.311Z,7.9
2017-12-31T07:44:47.868Z,8
2017-12-31T07:45:28.434Z,8.01
2017-12-31T07:46:09.012Z,8
2017-12-31T07:46:49.593Z,7.93
2017-12-31T07:47:30.149Z,7.91
2017-12-31T07:48:11.959Z,8
2017-12-31T07:48:52.652Z,7.93
2017-12-31T07:49:33.366Z,7.97
2017-12-31T07:50:14.010Z,7.91
2017-12-31T07:50:54.871Z,7.9
2017-12-31T07:51:35.614Z,7.94
2017-12-31T07:52:16.535Z,7.87
2017-12-31T07:52:57.524Z,8.01
2017-12-31T07:53:38.556Z,8.03
2017-12-31T07:54:19.340Z,7.91
2017-12-31T07:54:59.911Z,8.03
2017-12-31T07:55:40.487Z,8
2017-12-31T07:56:21.043Z,8.01
2017-12-31T07:57:01.607Z,8.08
2017-12-31T07:57:42.159Z,8.05
2017-12-31T07:58:22.708Z,8
2017-12-31T07:59:03.281Z,8.03
2017-12-31T07:59:44.018Z,8.01
2017-12-31T08:00:24.704Z,8.05
2017-12-31T08:01:05.599Z,8.06
2017-12-31T08:01:46.339Z,8.08
2017-12-31T08:02:26.902Z,8.06
2017-12-31T08:03:07.456Z,8.01
2017-12-31T08:03:48.244Z,8.09
2017-12-31T08:04:29.475Z,8.12
2017-12-31T08:05:10.694Z,8.15
2017-12-31T08:05:52.280Z,8.13
2017-12-31T08:06:34.362Z,8.12
2017-12-31T08:07:15.896Z,8.15
2017-12-31T08:07:56.507Z,8.15
2017-12-31T08:08:37.275Z,8.13
2017-12-31T08:09:18.414Z,8.18
2017-12-31T08:09:59.029Z,8.13
2017-12-31T08:10:39.610Z,8.1
2017-12-31T08:11:20.317Z,8.16
2017-12-31T08:12:01.060Z,8.18
2017-12-31T08:12:41.790Z,8.19
2017-12-31T08:13:22.645Z,8.26
2017-12-31T08:14:04.494Z,8.2
2017-12-31T08:14:46.559Z,8.24
2017-12-31T08:15:27.407Z,8.27
2017-12-31T08:16:08.432Z,8.16
2017-12-31T08:16:49.958Z,8.18
2017-12-31T08:17:31.244Z,8.24
2017-12-31T08:18:12.234Z,8.24
2017-12-31T08:18:53.457Z,8.2
2017-12-31T08:19:34.615Z,8.24
2017-12-31T08:20:15.537Z,8.26
2017-12-31T08:20:56.093Z,8.27
2017-12-31T08:21:37.826Z,8.27
2017-12-31T08:22:20.076Z,8.26
2017-12-31T08:23:01.006Z,8.27
2017-12-31T08:23:43.155Z,8.31
2017-12-31T08:24:24.308Z,8.27
2017-12-31T08:25:05.730Z,8.24
2017-12-31T08:25:46.855Z,8.24
2017-12-31T08:26:27.653Z,8.23
2017-12-31T08:27:09.241Z,8.33
2017-12-31T08:27:50.457Z,8.24
2017-12-31T08:28:31.467Z,8.36
2017-12-31T08:29:12.384Z,8.33
2017-12-31T08:29:53.256Z,8.27
2017-12-31T08:30:35.015Z,8.3
2017-12-31T08:31:15.682Z,8.28
2017-12-31T08:31:56.761Z,8.33
2017-12-31T08:32:37.445Z,8.34
2017-12-31T08:33:18.624Z,8.28
2017-12-31T08:33:59.284Z,8.3
2017-12-31T08:34:40.122Z,8.31
2017-12-31T08:35:20.812Z,8.38
2017-12-31T08:36:01.424Z,8.33
2017-12-31T08:36:42.231Z,8.33
2017-12-31T08:37:23.539Z,8.33
2017-12-31T08:38:04.479Z,8.3
2017-12-31T08:38:45.703Z,8.37
2017-12-31T08:39:26.533Z,8.33
2017-12-31T08:40:07.356Z,8.36
2017-12-31T08:40:48.465Z,8.38
2017-12-31T08:41:29.231Z,8.28
2017-12-31T08:42:10.040Z,8.33
2017-12-31T08:42:50.655Z,8.28
2017-12-31T08:43:31.437Z,8.38
2017-12-31T08:44:12.424Z,8.37
2017-12-31T08:44:53.141Z,8.31
2017-12-31T08:45:33.724Z,8.37
2017-12-31T08:46:14.911Z,8.33
2017-12-31T08:46:55.629Z,8.41
2017-12-31T08:47:36.297Z,8.37
2017-12-31T08:48:17.185Z,8.38
2017-12-31T08:48:57.767Z,8.33
2017-12-31T08:49:38.417Z,8.31
2017-12-31T08:50:19.021Z,8.44
2017-12-31T08:50:59.584Z,8.41
2017-12-31T08:51:40.446Z,8.38
2017-12-31T08:52:21.473Z,8.42
2017-12-31T08:53:02.435Z,8.45
2017-12-31T08:53:43.722Z,8.34
2017-12-31T08:54:24.881Z,8.46
2017-12-31T08:55:06.227Z,8.44
2017-12-31T08:55:48.562Z,8.42
2017-12-31T08:56:29.763Z,8.38
2017-12-31T08:57:10.837Z,8.38
2017-12-31T08:57:51.766Z,8.36
2017-12-31T08:58:33.012Z,8.51
2017-12-31T08:59:14.292Z,8.44
2017-12-31T08:59:55.499Z,8.41
2017-12-31T09:00:36.466Z,8.42
2017-12-31T09:01:17.325Z,8.42
2017-12-31T09:01:58.266Z,8.42
2017-12-31T09:02:39.168Z,8.44
2017-12-31T09:03:20.172Z,8.44
2017-12-31T09:04:01.302Z,8.38
2017-12-31T09:04:42.234Z,8.48
2017-12-31T09:05:23.508Z,8.38
2017-12-31T09:06:05.390Z,8.42